createdAt,value
2023-04-07T00:00:27.812Z,8.73
2023-04-07T00:02:54.957Z,8.80
2023-04-07T00:05:22.043Z,9.20
2023-04-07T00:07:56.344Z,10.10
2023-04-07T00:10:25.030Z,9.27
2023-04-07T00:12:52.223Z,8.87
2023-04-07T00:15:19.247Z,10.17
2023-04-07T00:17:46.264Z,10.03
2023-04-07T00:20:13.254Z,9.00
2023-04-07T00:22:40.178Z,8.60
2023-04-07T00:25:07.703Z,9.10
2023-04-07T00:27:34.815Z,9.30
2023-04-07T00:30:02.278Z,9.63
2023-04-07T00:32:29.302Z,9.43
2023-04-07T00:34:56.257Z,9.53
2023-04-07T00:37:23.949Z,9.03
2023-04-07T00:39:51.813Z,9.93
2023-04-07T00:42:19.851Z,9.23
2023-04-07T00:44:46.998Z,9.73
2023-04-07T00:47:15.460Z,10.70
2023-04-07T00:49:42.827Z,10.03
2023-04-07T00:52:11.551Z,9.30
2023-04-07T00:54:41.456Z,9.30
2023-04-07T00:57:09.219Z,10.00
2023-04-07T00:59:36.386Z,9.53
2023-04-07T01:02:12.695Z,9.50
2023-04-07T01:04:47.466Z,9.20
2023-04-07T01:07:28.925Z,8.87
2023-04-07T01:10:10.011Z,8.83
2023-04-07T01:13:13.572Z,9.67
2023-04-07T01:15:42.152Z,10.20
2023-04-07T01:18:20.038Z,9.40
2023-04-07T01:20:50.398Z,10.53
2023-04-07T01:23:46.374Z,9.90
2023-04-07T01:26:26.670Z,10.43
2023-04-07T01:29:33.987Z,9.30
2023-04-07T01:32:02.761Z,8.83
2023-04-07T01:34:32.405Z,9.57
2023-04-07T01:37:02.583Z,9.67
2023-04-07T01:39:30.454Z,9.57
2023-04-07T01:41:59.155Z,8.93
2023-04-07T01:44:27.546Z,9.17
2023-04-07T01:46:55.685Z,9.60
2023-04-07T01:49:25.180Z,9.67
2023-04-07T01:51:52.544Z,9.33
2023-04-07T01:54:20.585Z,9.13
2023-04-07T01:56:47.587Z,9.90
2023-04-07T01:59:14.568Z,9.50
2023-04-07T02:01:42.649Z,9.30
2023-04-07T02:04:32.409Z,9.50
2023-04-07T02:07:09.640Z,8.97
2023-04-07T02:09:43.841Z,10.33
2023-04-07T02:12:14.635Z,8.90
2023-04-07T02:14:50.078Z,9.27
2023-04-07T02:17:19.068Z,9.90
2023-04-07T02:19:47.811Z,9.57
2023-04-07T02:22:16.564Z,9.90
2023-04-07T02:24:43.577Z,9.70
2023-04-07T02:27:10.626Z,9.57
2023-04-07T02:29:37.559Z,10.53
2023-04-07T02:32:06.050Z,10.17
2023-04-07T02:34:33.177Z,9.40
2023-04-07T02:37:00.154Z,9.53
2023-04-07T02:39:27.609Z,9.77
2023-04-07T02:41:54.508Z,9.30
2023-04-07T02:44:21.442Z,9.20
2023-04-07T02:46:48.425Z,9.73
2023-04-07T02:49:15.334Z,9.67
2023-04-07T02:51:42.348Z,9.87
2023-04-07T02:54:09.297Z,10.53
2023-04-07T02:56:36.306Z,9.87
2023-04-07T02:59:03.248Z,9.27
2023-04-07T03:01:35.065Z,9.60
2023-04-07T03:04:02.613Z,9.50
2023-04-07T03:06:29.531Z,9.40
2023-04-07T03:09:05.107Z,10.23
2023-04-07T03:11:33.455Z,9.77
2023-04-07T03:14:01.078Z,10.20
2023-04-07T03:16:30.315Z,10.30
2023-04-07T03:19:09.684Z,9.77
2023-04-07T03:21:41.188Z,10.27
2023-04-07T03:24:09.008Z,11.53
2023-04-07T03:26:36.004Z,10.00
2023-04-07T03:29:04.418Z,10.37
2023-04-07T03:31:31.882Z,10.17
2023-04-07T03:33:58.917Z,9.93
2023-04-07T03:36:28.127Z,10.17
2023-04-07T03:38:57.752Z,9.93
2023-04-07T03:41:24.834Z,10.67
2023-04-07T03:43:51.937Z,9.60
2023-04-07T03:46:21.560Z,9.40
2023-04-07T03:48:48.636Z,9.70
2023-04-07T03:51:15.796Z,10.27
2023-04-07T03:53:45.764Z,10.83
2023-04-07T03:56:25.224Z,9.70
2023-04-07T03:58:53.036Z,10.33
2023-04-07T04:01:27.981Z,10.83
2023-04-07T04:03:57.120Z,10.20
2023-04-07T04:06:27.253Z,10.60
2023-04-07T04:09:00.834Z,10.70
2023-04-07T04:11:29.803Z,13.27
2023-04-07T04:14:03.539Z,11.77
2023-04-07T04:16:31.788Z,13.18
2023-04-07T04:19:03.547Z,12.83
2023-04-07T04:21:31.527Z,11.53
2023-04-07T04:23:58.491Z,11.07
2023-04-07T04:26:27.474Z,11.57
2023-04-07T04:28:57.922Z,12.23
2023-04-07T04:31:25.748Z,13.00
2023-04-07T04:33:53.065Z,13.17
2023-04-07T04:36:21.227Z,12.80
2023-04-07T04:38:49.174Z,12.47
2023-04-07T04:41:19.406Z,12.33
2023-04-07T04:43:48.055Z,11.73
2023-04-07T04:46:19.334Z,12.00
2023-04-07T04:48:46.719Z,11.20
2023-04-07T04:51:13.674Z,11.17
2023-04-07T04:53:41.906Z,10.67
2023-04-07T04:56:09.057Z,12.07
2023-04-07T04:58:46.097Z,10.73
2023-04-07T05:01:18.860Z,10.80
2023-04-07T05:03:53.590Z,10.67
2023-04-07T05:06:29.510Z,11.00
2023-04-07T05:09:00.698Z,10.60
2023-04-07T05:11:33.181Z,12.47
2023-04-07T05:14:00.387Z,10.00
2023-04-07T05:16:27.400Z,10.83
2023-04-07T05:18:55.241Z,10.67
2023-04-07T05:21:25.007Z,10.97
2023-04-07T05:23:54.010Z,12.13
2023-04-07T05:26:23.128Z,13.80
2023-04-07T05:28:51.736Z,12.83
2023-04-07T05:31:21.988Z,24.50
2023-04-07T05:33:52.873Z,21.13
2023-04-07T05:36:22.946Z,28.07
2023-04-07T05:38:53.976Z,24.47
2023-04-07T05:41:21.373Z,24.37
2023-04-07T05:43:48.381Z,18.73
2023-04-07T05:46:17.259Z,15.43
2023-04-07T05:48:51.706Z,13.47
2023-04-07T05:51:19.895Z,15.10
2023-04-07T05:53:47.243Z,12.70
2023-04-07T05:56:15.115Z,14.37
2023-04-07T05:58:45.295Z,12.77
2023-04-07T06:01:14.022Z,11.67
2023-04-07T06:03:41.374Z,12.10
2023-04-07T06:06:16.136Z,12.40
2023-04-07T06:08:43.129Z,11.87
2023-04-07T06:11:10.297Z,11.53
2023-04-07T06:13:37.373Z,11.93
2023-04-07T06:16:05.185Z,10.33
2023-04-07T06:18:32.320Z,11.03
2023-04-07T06:20:59.569Z,11.53
2023-04-07T06:23:26.539Z,10.27
2023-04-07T06:25:53.592Z,10.77
2023-04-07T06:28:22.438Z,10.13
2023-04-07T06:30:49.644Z,11.70
2023-04-07T06:33:17.119Z,10.67
2023-04-07T06:35:44.160Z,11.20
2023-04-07T06:38:12.309Z,11.40
2023-04-07T06:40:39.444Z,11.87
2023-04-07T06:43:06.815Z,10.97
2023-04-07T06:45:41.900Z,11.53
2023-04-07T06:48:10.995Z,10.70
2023-04-07T06:50:41.274Z,10.83
2023-04-07T06:53:08.447Z,10.67
2023-04-07T06:55:35.603Z,10.57
2023-04-07T06:58:02.709Z,14.90
2023-04-07T07:00:31.094Z,10.83
2023-04-07T07:02:58.372Z,13.43
2023-04-07T07:05:25.645Z,13.97
2023-04-07T07:07:55.349Z,12.00
2023-04-07T07:10:22.878Z,12.00
2023-04-07T07:12:50.858Z,11.60
2023-04-07T07:15:18.563Z,12.83
2023-04-07T07:17:46.044Z,14.87
2023-04-07T07:20:13.129Z,14.23
2023-04-07T07:22:40.163Z,14.90
2023-04-07T07:25:07.457Z,13.60
2023-04-07T07:27:34.842Z,12.63
2023-04-07T07:30:01.934Z,11.17
2023-04-07T07:32:29.006Z,11.47
2023-04-07T07:34:56.223Z,12.27
2023-04-07T07:37:23.216Z,11.90
2023-04-07T07:39:50.231Z,10.93
2023-04-07T07:42:17.313Z,11.77
2023-04-07T07:44:44.373Z,11.67
2023-04-07T07:47:12.535Z,14.67
2023-04-07T07:49:39.812Z,13.27
2023-04-07T07:52:07.711Z,16.10
2023-04-07T07:54:36.171Z,13.40
2023-04-07T07:57:04.503Z,13.43
2023-04-07T07:59:32.078Z,17.30
2023-04-07T08:01:59.224Z,12.70
2023-04-07T08:04:26.468Z,16.27
2023-04-07T08:06:53.735Z,12.90
2023-04-07T08:09:21.449Z,10.97
2023-04-07T08:11:51.456Z,12.30
2023-04-07T08:14:18.741Z,12.30
2023-04-07T08:16:46.039Z,11.53
2023-04-07T08:19:14.277Z,12.60
2023-04-07T08:21:41.207Z,10.53
2023-04-07T08:24:09.189Z,10.63
2023-04-07T08:26:36.486Z,14.43
2023-04-07T08:29:03.463Z,11.53
2023-04-07T08:31:30.402Z,18.73
2023-04-07T08:34:00.181Z,30.40
2023-04-07T08:36:28.129Z,16.43
2023-04-07T08:38:55.240Z,14.27
2023-04-07T08:41:38.125Z,13.27
2023-04-07T08:44:07.032Z,13.53
2023-04-07T08:46:34.452Z,10.97
2023-04-07T08:49:02.282Z,16.23
2023-04-07T08:51:33.332Z,12.53
2023-04-07T08:54:14.558Z,12.93
2023-04-07T08:56:43.182Z,11.00
2023-04-07T08:59:15.003Z,12.70
2023-04-07T09:01:42.490Z,12.10
2023-04-07T09:04:10.907Z,17.50
2023-04-07T09:06:38.429Z,16.90
2023-04-07T09:09:08.616Z,11.67
2023-04-07T09:11:41.121Z,11.90
2023-04-07T09:14:08.346Z,14.13
2023-04-07T09:16:35.596Z,14.93
2023-04-07T09:19:02.772Z,13.30
2023-04-07T09:21:51.479Z,14.37
2023-04-07T09:24:26.595Z,13.57
2023-04-07T09:27:17.902Z,12.57
2023-04-07T09:29:47.124Z,13.43
2023-04-07T09:32:44.680Z,12.90
2023-04-07T09:35:11.757Z,12.83
2023-04-07T09:37:38.662Z,13.03
2023-04-07T09:40:06.349Z,12.50
2023-04-07T09:42:36.086Z,12.23
2023-04-07T09:45:03.576Z,11.97
2023-04-07T09:47:32.862Z,11.40
2023-04-07T09:50:06.711Z,11.13
2023-04-07T09:52:53.288Z,11.37
2023-04-07T09:55:22.670Z,11.90
2023-04-07T09:57:55.332Z,10.67
2023-04-07T10:00:22.864Z,10.60
2023-04-07T10:02:51.407Z,11.77
2023-04-07T10:05:21.166Z,10.37
2023-04-07T10:07:49.327Z,11.30
2023-04-07T10:10:16.720Z,10.67
2023-04-07T10:12:44.569Z,10.17
2023-04-07T10:15:16.004Z,11.73
2023-04-07T10:17:48.252Z,11.07
2023-04-07T10:20:21.198Z,11.97
2023-04-07T10:22:54.043Z,11.93
2023-04-07T10:25:24.452Z,13.10
2023-04-07T10:28:03.262Z,13.67
2023-04-07T10:30:32.549Z,13.30
2023-04-07T10:32:59.803Z,15.70
2023-04-07T10:35:27.125Z,13.67
2023-04-07T10:38:11.750Z,15.00
2023-04-07T10:40:39.452Z,12.60
2023-04-07T10:43:11.497Z,11.97
2023-04-07T10:45:48.565Z,12.40
2023-04-07T10:48:18.179Z,11.33
2023-04-07T10:50:46.923Z,11.63
2023-04-07T10:53:15.489Z,11.87
2023-04-07T10:55:47.203Z,14.10
2023-04-07T10:58:33.536Z,16.97
2023-04-07T11:01:03.711Z,13.90
2023-04-07T11:03:35.999Z,12.80
2023-04-07T11:06:08.105Z,10.97
2023-04-07T11:08:36.565Z,10.77
2023-04-07T11:11:09.391Z,10.93
2023-04-07T11:13:47.873Z,11.40
2023-04-07T11:16:17.622Z,10.17
2023-04-07T11:18:46.458Z,11.03
2023-04-07T11:21:19.093Z,11.23
2023-04-07T11:23:47.941Z,11.47
2023-04-07T11:26:16.488Z,11.00
2023-04-07T11:28:54.289Z,11.40
2023-04-07T11:31:29.400Z,10.83
2023-04-07T11:33:59.462Z,12.07
2023-04-07T11:36:34.826Z,11.47
2023-04-07T11:39:03.380Z,10.47
2023-04-07T11:41:32.900Z,10.80
2023-04-07T11:44:10.978Z,12.33
2023-04-07T11:46:58.025Z,11.57
2023-04-07T11:49:28.617Z,11.30
2023-04-07T11:52:04.378Z,14.00
2023-04-07T11:54:44.109Z,12.87
2023-04-07T11:57:13.017Z,10.60
2023-04-07T11:59:43.136Z,10.33
2023-04-07T12:02:10.439Z,10.97
2023-04-07T12:04:40.333Z,10.53
2023-04-07T12:07:11.959Z,11.23
2023-04-07T12:09:40.082Z,12.40
2023-04-07T12:12:08.253Z,10.33
2023-04-07T12:14:36.117Z,10.10
2023-04-07T12:17:03.608Z,9.90
2023-04-07T12:19:35.869Z,12.50
2023-04-07T12:22:03.946Z,12.20
2023-04-07T12:24:32.525Z,11.23
2023-04-07T12:26:59.937Z,9.90
2023-04-07T12:29:27.003Z,10.43
2023-04-07T12:31:54.272Z,10.13
2023-04-07T12:34:21.629Z,10.00
2023-04-07T12:36:48.680Z,9.80
2023-04-07T12:39:16.666Z,10.07
2023-04-07T12:41:45.784Z,17.30
2023-04-07T12:44:13.017Z,11.03
2023-04-07T12:46:40.265Z,9.60
2023-04-07T12:49:07.529Z,10.30
2023-04-07T12:51:34.857Z,10.23
2023-04-07T12:54:01.976Z,10.63
2023-04-07T12:56:29.186Z,10.03
2023-04-07T12:58:56.200Z,9.57
2023-04-07T13:01:23.958Z,11.00
2023-04-07T13:03:51.527Z,10.13
2023-04-07T13:06:19.309Z,10.30
2023-04-07T13:08:46.330Z,10.27
2023-04-07T13:11:13.420Z,9.77
2023-04-07T13:13:40.453Z,9.43
2023-04-07T13:16:07.960Z,8.90
2023-04-07T13:18:34.949Z,9.57
2023-04-07T13:21:19.842Z,9.70
2023-04-07T13:23:50.757Z,9.00
2023-04-07T13:26:17.756Z,9.60
2023-04-07T13:28:46.160Z,9.03
2023-04-07T13:31:16.212Z,9.57
2023-04-07T13:33:43.556Z,9.03
2023-04-07T13:36:10.805Z,9.63
2023-04-07T13:38:37.882Z,9.70
2023-04-07T13:41:04.870Z,9.47
2023-04-07T13:43:31.817Z,9.43
2023-04-07T13:45:58.837Z,9.57
2023-04-07T13:48:25.945Z,9.10
2023-04-07T13:50:52.980Z,9.23
2023-04-07T13:53:20.320Z,9.37
2023-04-07T13:55:47.422Z,9.90
2023-04-07T13:58:14.573Z,9.60
2023-04-07T14:00:41.695Z,9.63
2023-04-07T14:03:08.862Z,10.07
2023-04-07T14:05:36.044Z,10.10
2023-04-07T14:08:03.017Z,11.00
2023-04-07T14:10:29.986Z,11.37
2023-04-07T14:12:57.157Z,10.27
2023-04-07T14:15:24.167Z,9.90
2023-04-07T14:17:51.190Z,10.93
2023-04-07T14:20:18.350Z,10.63
2023-04-07T14:22:45.592Z,10.87
2023-04-07T14:25:12.691Z,10.80
2023-04-07T14:27:39.750Z,9.97
2023-04-07T14:30:07.266Z,8.90
2023-04-07T14:32:34.481Z,8.87
2023-04-07T14:35:01.811Z,10.77
2023-04-07T14:37:29.373Z,9.10
2023-04-07T14:40:02.592Z,13.67
2023-04-07T14:42:31.152Z,10.20
2023-04-07T14:45:00.161Z,16.57
2023-04-07T14:47:27.616Z,12.17
2023-04-07T14:49:55.520Z,9.70
2023-04-07T14:52:22.544Z,9.80
2023-04-07T14:54:49.580Z,9.00
2023-04-07T14:57:17.182Z,9.40
2023-04-07T14:59:44.430Z,10.20
2023-04-07T15:02:11.695Z,10.33
2023-04-07T15:04:38.973Z,9.27
2023-04-07T15:07:06.172Z,10.00
2023-04-07T15:09:33.282Z,9.97
2023-04-07T15:12:02.984Z,9.27
2023-04-07T15:14:29.939Z,9.43
2023-04-07T15:16:56.943Z,8.80
2023-04-07T15:19:23.912Z,8.77
2023-04-07T15:21:50.957Z,8.13
2023-04-07T15:24:19.466Z,9.63
2023-04-07T15:26:46.327Z,9.07
2023-04-07T15:29:13.262Z,9.57
2023-04-07T15:31:40.352Z,9.37
2023-04-07T15:34:07.359Z,8.77
2023-04-07T15:36:34.322Z,8.37
2023-04-07T15:39:06.573Z,8.60
2023-04-07T15:41:33.988Z,9.80
2023-04-07T15:44:01.240Z,10.50
2023-04-07T15:46:28.744Z,10.17
2023-04-07T15:48:55.786Z,8.87
2023-04-07T15:51:22.798Z,8.13
2023-04-07T15:53:50.251Z,7.97
2023-04-07T15:56:17.376Z,7.70
2023-04-07T15:58:46.035Z,7.40
2023-04-07T16:01:13.195Z,7.67
2023-04-07T16:03:40.330Z,7.50
2023-04-07T16:06:07.568Z,8.40
2023-04-07T16:08:34.704Z,7.60
2023-04-07T16:11:01.725Z,8.03
2023-04-07T16:13:28.858Z,8.20
2023-04-07T16:15:57.493Z,8.23
2023-04-07T16:18:24.623Z,9.30
2023-04-07T16:20:51.809Z,9.20
2023-04-07T16:23:18.809Z,9.73
2023-04-07T16:25:45.788Z,9.48
2023-04-07T16:28:12.835Z,8.63
2023-04-07T16:30:40.148Z,9.90
2023-04-07T16:33:07.204Z,9.47
2023-04-07T16:35:34.493Z,9.87
2023-04-07T16:38:04.430Z,9.40
2023-04-07T16:40:32.286Z,10.43
2023-04-07T16:42:59.447Z,9.60
2023-04-07T16:45:26.545Z,10.87
2023-04-07T16:47:53.625Z,10.90
2023-04-07T16:50:21.801Z,10.77
2023-04-07T16:52:48.759Z,11.03
2023-04-07T16:55:15.772Z,11.23
2023-04-07T16:57:42.696Z,10.93
2023-04-07T17:00:10.429Z,12.00
2023-04-07T17:02:37.420Z,11.97
2023-04-07T17:05:04.682Z,10.90
2023-04-07T17:07:31.905Z,11.07
2023-04-07T17:09:59.014Z,12.37
2023-04-07T17:12:26.422Z,11.53
2023-04-07T17:14:53.349Z,12.07
2023-04-07T17:17:20.903Z,11.70
2023-04-07T17:19:47.889Z,12.10
2023-04-07T17:22:14.876Z,12.07
2023-04-07T17:24:41.936Z,12.10
2023-04-07T17:27:09.198Z,11.70
2023-04-07T17:29:36.136Z,13.60
2023-04-07T17:32:03.305Z,13.40
2023-04-07T17:34:30.247Z,12.17
2023-04-07T17:36:57.271Z,12.47
2023-04-07T17:39:24.218Z,12.00
2023-04-07T17:41:51.900Z,11.07
2023-04-07T17:44:18.787Z,12.27
2023-04-07T17:46:46.087Z,12.67
2023-04-07T17:49:13.210Z,12.97
2023-04-07T17:51:40.180Z,13.27
2023-04-07T17:54:07.240Z,11.50
2023-04-07T17:56:34.330Z,11.47
2023-04-07T17:59:01.768Z,11.20
2023-04-07T18:01:28.839Z,11.10
2023-04-07T18:03:55.980Z,12.07
2023-04-07T18:06:23.525Z,11.10
2023-04-07T18:08:50.958Z,11.10
2023-04-07T18:11:18.729Z,13.20
2023-04-07T18:13:45.715Z,11.53
2023-04-07T18:16:18.048Z,12.43
2023-04-07T18:18:46.546Z,11.43
2023-04-07T18:21:13.491Z,12.47
2023-04-07T18:23:40.382Z,12.43
2023-04-07T18:26:07.389Z,11.03
2023-04-07T18:28:35.437Z,11.63
2023-04-07T18:31:07.711Z,10.60
2023-04-07T18:33:35.805Z,10.80
2023-04-07T18:36:07.763Z,12.47
2023-04-07T18:38:36.490Z,12.13
2023-04-07T18:41:03.971Z,13.77
2023-04-07T18:43:31.383Z,16.83
2023-04-07T18:45:59.010Z,17.80
2023-04-07T18:48:26.596Z,16.13
2023-04-07T18:50:54.963Z,13.37
2023-04-07T18:53:23.137Z,12.70
2023-04-07T18:55:50.422Z,12.03
2023-04-07T18:58:17.532Z,12.83
2023-04-07T19:00:44.768Z,11.83
2023-04-07T19:03:12.140Z,12.47
2023-04-07T19:05:39.965Z,11.83
2023-04-07T19:08:07.512Z,11.37
2023-04-07T19:10:35.075Z,12.07
2023-04-07T19:13:02.143Z,12.13
2023-04-07T19:15:34.126Z,10.90
2023-04-07T19:18:04.550Z,11.13
2023-04-07T19:20:33.749Z,10.53
2023-04-07T19:23:02.032Z,10.03
2023-04-07T19:25:30.809Z,10.97
2023-04-07T19:27:58.999Z,10.53
2023-04-07T19:30:26.529Z,10.67
2023-04-07T19:32:53.783Z,10.57
2023-04-07T19:35:21.402Z,9.70
2023-04-07T19:37:48.812Z,10.10
2023-04-07T19:40:16.088Z,9.83
2023-04-07T19:42:43.237Z,10.10
2023-04-07T19:45:10.723Z,10.30
2023-04-07T19:47:38.613Z,9.43
2023-04-07T19:50:06.319Z,9.40
2023-04-07T19:52:33.287Z,9.43
2023-04-07T19:55:01.475Z,10.10
2023-04-07T19:57:29.170Z,10.33
2023-04-07T19:59:56.185Z,9.70
2023-04-07T20:02:23.804Z,9.30
2023-04-07T20:04:51.233Z,9.70
2023-04-07T20:07:18.533Z,9.50
2023-04-07T20:09:45.582Z,9.60
2023-04-07T20:12:12.869Z,10.10
2023-04-07T20:14:39.951Z,10.53
2023-04-07T20:17:07.054Z,10.47
2023-04-07T20:19:34.057Z,10.73
2023-04-07T20:22:01.140Z,9.70
2023-04-07T20:24:28.464Z,10.80
2023-04-07T20:26:56.062Z,9.93
2023-04-07T20:29:22.993Z,10.20
2023-04-07T20:31:49.929Z,10.83
2023-04-07T20:34:16.854Z,10.53
2023-04-07T20:36:43.865Z,10.20
2023-04-07T20:39:11.164Z,9.83
2023-04-07T20:41:38.720Z,10.13
2023-04-07T20:44:05.784Z,9.77
2023-04-07T20:46:33.775Z,10.30
2023-04-07T20:49:01.034Z,10.47
2023-04-07T20:51:29.054Z,9.43
2023-04-07T20:53:56.023Z,9.83
2023-04-07T20:56:23.908Z,11.93
2023-04-07T20:58:51.416Z,9.70
2023-04-07T21:01:18.514Z,10.10
2023-04-07T21:03:46.077Z,12.27
2023-04-07T21:06:13.118Z,10.80
2023-04-07T21:08:40.094Z,10.10
2023-04-07T21:11:07.003Z,9.30
2023-04-07T21:13:34.023Z,10.27
2023-04-07T21:16:03.428Z,10.97
2023-04-07T21:18:30.733Z,11.63
2023-04-07T21:20:59.764Z,13.13
2023-04-07T21:23:26.829Z,11.70
2023-04-07T21:25:53.755Z,13.93
2023-04-07T21:28:20.957Z,17.73
2023-04-07T21:30:47.898Z,17.47
2023-04-07T21:33:15.097Z,17.33
2023-04-07T21:35:42.226Z,14.87
2023-04-07T21:38:09.185Z,15.00
2023-04-07T21:40:36.194Z,13.83
2023-04-07T21:43:03.233Z,12.50
2023-04-07T21:45:30.152Z,11.50
2023-04-07T21:47:57.358Z,11.43
2023-04-07T21:50:24.878Z,11.93
2023-04-07T21:52:53.833Z,12.50
2023-04-07T21:55:21.385Z,11.70
2023-04-07T21:57:50.263Z,12.40
2023-04-07T22:00:17.638Z,12.10
2023-04-07T22:02:45.606Z,11.67
2023-04-07T22:05:12.889Z,13.43
2023-04-07T22:07:39.849Z,11.30
2023-04-07T22:10:07.684Z,11.73
2023-04-07T22:12:34.720Z,10.90
2023-04-07T22:15:01.714Z,14.90
2023-04-07T22:17:28.919Z,11.73
2023-04-07T22:19:56.075Z,10.93
2023-04-07T22:22:23.082Z,11.63
2023-04-07T22:24:50.097Z,12.20
2023-04-07T22:27:17.105Z,11.43
2023-04-07T22:29:44.091Z,11.53
2023-04-07T22:32:11.223Z,11.80
2023-04-07T22:34:38.186Z,11.57
2023-04-07T22:37:05.410Z,11.47
2023-04-07T22:39:32.422Z,10.97
2023-04-07T22:41:59.378Z,11.57
2023-04-07T22:44:26.395Z,11.93
2023-04-07T22:46:53.377Z,11.33
2023-04-07T22:49:20.408Z,11.60
2023-04-07T22:51:48.670Z,11.93
2023-04-07T22:54:16.319Z,12.80
2023-04-07T22:56:44.511Z,12.73
2023-04-07T22:59:11.563Z,13.27
2023-04-07T23:01:39.103Z,13.63
2023-04-07T23:04:06.400Z,12.13
2023-04-07T23:06:33.486Z,13.30
2023-04-07T23:09:00.517Z,14.13
2023-04-07T23:11:27.494Z,18.70
2023-04-07T23:13:54.447Z,18.00
2023-04-07T23:16:23.343Z,22.38
2023-04-07T23:18:50.531Z,22.60
2023-04-07T23:21:17.688Z,24.43
2023-04-07T23:23:44.722Z,26.70
2023-04-07T23:26:11.629Z,27.33
2023-04-07T23:28:38.712Z,27.33
2023-04-07T23:31:06.794Z,27.90
2023-04-07T23:33:33.880Z,28.67
2023-04-07T23:36:00.891Z,28.80
2023-04-07T23:38:27.959Z,28.07
2023-04-07T23:40:55.010Z,28.83
2023-04-07T23:43:22.068Z,29.27
2023-04-07T23:45:49.099Z,29.37
2023-04-07T23:48:16.182Z,29.60
2023-04-07T23:50:43.137Z,29.37
2023-04-07T23:53:10.375Z,30.43
2023-04-07T23:55:37.339Z,29.00
2023-04-07T23:58:04.343Z,30.17
